Dearborn, MO

1:10 AM CDT on August 04, 2015 (GMT -0500)
Clinton Estates | | Change Station
CLOSE
Current Station
Personal Weather Station
Location: Trimble, MO
Elevation: 975 ft
Nearby Weather Stations
Active Advisory: Flood Warning

Elev 975 ft 39.47 °N, 94.58 °W | Updated 37 seconds ago

Partly Cloudy
Partly Cloudy
72.8 °F
Feels Like 72 °F
N
1.0
Wind Variable Wind from ESE
Gusts 3.0 mph

Today
High -- | Low -- °F
--% Chance of Precip.
Yesterday
High -- | Low -- °F
Precip. -- in
6:21 AM 8:28 PM
Waning Gibbous, 80% visible
Pressure 29.92 in
Visibility 10.0 miles
Clouds Clear
Heat Index 72 °F
Dew Point 68 °F
Humidity 84%
Rainfall 0.00 in
Snow Depth Not available.
UV 0 out of 12
Pollen 6.80 out of 12
Air Quality Not available.
Flu Activity Not available.
METAR KMCI 040553Z 10007KT 10SM CLR 24/19 A2995 RMK AO2 SLP131 T02390194 10283 20239 403060200 51005

More Conditions Fewer Conditions

Pressure 29.92 in
Visibility 10.0 miles
Clouds Clear
Heat Index 72 °F
Dew Point 68 °F
Humidity 84%
Rainfall 0.00 in
Snow Depth Not available.
UV 0 out of 12
Pollen 6.80 out of 12
Air Quality Not available.
Flu Activity Not available.
METAR KMCI 040553Z 10007KT 10SM CLR 24/19 A2995 RMK AO2 SLP131 T02390194 10283 20239 403060200 51005

More Conditions Fewer Conditions

10-Day Weather Forecast

×

Almanac

Astronomy

Aug. 04, 2015 Rise Set
Actual Time
Civil Twilight
Nautical Twilight
Astronomical Twilight
Moon
Length of Visible Light
Length of Day
Tomorrow will be .
, % of the Moon is Illuminated

Today's Extremes

State Highs State Lows

Community

WunderPhotos

Upload Photos

1,843,870 photos uploaded!

WunderBlogs® & News

Nearby

Air Quality

  Air Quality AQ Index Pollutant
Not available.

Snow Depth

Station Depth Elevation

Earthquake Activity

City Distance Mag. Time & Date
Minimum magnitude displayed is 2.5.

Coastal Water Temperatures

Place Temperature

Stations

Nearby Weather Stations

Station Location Temp. Windchill Dew Point Humidity Wind Precip. Elev Updated Type
                   
Flood Warning
Statement as of 9:58 PM CDT on August 03, 2015

The Flood Warning continues for
the Platte River near Platte City.
* Until further notice.
* At 6:04 PM Monday the stage was 20.0 feet.
* Flood stage is 20.0 feet.
* Minor flooding is occurring.
* Forecast... the river will continue to fall below flood stage by
early Tuesday.
* At 20.0 feet... cropland near State Highway 92 near Platte City
begins to flood.

                       Latest
location fs stage day/time forecast

Platte River
Platte City 20 20.0 Mon 06 PM 18.1 Tuesday morning


lat... Lon 3939 9479 3935 9476 3927 9481 3929 9484 3933 9483